Flugplatz Hohenfels Army Air Field

Bericht für ETIH

vom 30.09. um 22:55 UTC

kein Wind

Sichtweite 10 km oder mehr

keine Wolken

Temperatur 4.2°C

Taupunkt 3.0°C

Luftfeuchtigkeit 92%

Luftdruck 1014 hPa

ETIH 302255Z AUTO 00000KT 9999 CLR 04/03 A2995 RMK AO2 SLP151 T00420030 PWINO
Keine Prognose (TAF) verfügbar.
Impressum